createdAt,value
2023-02-05T00:00:56.285Z,6.40
2023-02-05T00:03:22.963Z,7.07
2023-02-05T00:05:49.576Z,5.30
2023-02-05T00:08:16.133Z,5.60
2023-02-05T00:11:23.906Z,6.90
2023-02-05T00:14:37.402Z,4.75
2023-02-05T00:17:04.169Z,5.82
2023-02-05T00:19:30.704Z,3.95
2023-02-05T00:21:57.284Z,4.07
2023-02-05T00:24:23.912Z,5.15
2023-02-05T00:26:50.535Z,4.43
2023-02-05T00:29:17.087Z,4.72
2023-02-05T00:31:43.831Z,3.50
2023-02-05T00:34:10.558Z,4.18
2023-02-05T00:36:37.093Z,5.05
2023-02-05T00:39:03.784Z,4.85
2023-02-05T00:41:30.360Z,4.28
2023-02-05T00:43:56.910Z,4.32
2023-02-05T00:46:23.538Z,4.32
2023-02-05T00:48:50.112Z,6.82
2023-02-05T00:51:16.671Z,4.62
2023-02-05T00:53:43.251Z,3.67
2023-02-05T00:56:15.119Z,4.37
2023-02-05T00:58:47.376Z,6.07
2023-02-05T01:01:41.822Z,5.23
2023-02-05T01:04:22.134Z,3.45
2023-02-05T01:06:48.751Z,3.03
2023-02-05T01:09:15.314Z,4.47
2023-02-05T01:11:41.922Z,4.87
2023-02-05T01:14:12.757Z,4.05
2023-02-05T02:00:07.287Z,3.45
2023-02-05T02:02:36.632Z,4.85
2023-02-05T02:05:10.266Z,5.10
2023-02-05T02:07:37.118Z,8.02
2023-02-05T02:10:04.866Z,6.37
2023-02-05T02:15:49.311Z,4.47
2023-02-05T02:18:26.968Z,4.72
2023-02-05T02:21:27.771Z,5.32
2023-02-05T02:24:32.017Z,5.75
2023-02-05T02:26:58.494Z,4.90
2023-02-05T02:29:50.680Z,4.93
2023-02-05T02:32:55.014Z,4.90
2023-02-05T02:35:36.655Z,5.80
2023-02-05T02:38:22.457Z,4.72
2023-02-05T02:40:53.134Z,5.43
2023-02-05T02:43:30.617Z,12.50
2023-02-05T02:46:17.832Z,9.02
2023-02-05T02:48:47.908Z,8.77
2023-02-05T02:51:18.393Z,20.30
2023-02-05T02:53:49.331Z,13.48
2023-02-05T02:56:19.286Z,10.05
2023-02-05T02:58:50.681Z,16.62
2023-02-05T03:01:22.795Z,19.75
2023-02-05T03:03:57.807Z,19.67
2023-02-05T03:06:26.948Z,9.85
2023-02-05T03:08:59.850Z,8.60
2023-02-05T03:15:21.126Z,6.75
2023-02-05T03:17:47.888Z,5.30
2023-02-05T03:20:22.480Z,7.90
2023-02-05T03:22:49.051Z,4.03
2023-02-05T03:25:30.697Z,6.10
2023-02-05T03:27:58.498Z,5.15
2023-02-05T03:30:33.666Z,8.30
2023-02-05T03:33:20.605Z,19.52
2023-02-05T03:36:27.741Z,14.85
2023-02-05T03:39:13.022Z,8.95
2023-02-05T03:41:57.796Z,5.22
2023-02-05T03:45:03.162Z,5.93
2023-02-05T03:47:46.454Z,3.72
2023-02-05T03:50:20.565Z,4.72
2023-02-05T03:53:14.335Z,5.03
2023-02-05T03:56:33.768Z,3.55
2023-02-05T03:59:23.423Z,2.92
2023-02-05T04:01:50.574Z,6.22
2023-02-05T04:04:17.442Z,3.92
2023-02-05T04:06:47.070Z,6.07
2023-02-05T04:09:13.828Z,6.18
2023-02-05T04:11:40.519Z,4.00
2023-02-05T04:14:07.132Z,5.37
2023-02-05T04:16:33.903Z,4.65
2023-02-05T04:19:00.517Z,6.18
2023-02-05T04:21:27.560Z,5.10
2023-02-05T04:23:54.539Z,4.75
2023-02-05T04:26:21.154Z,4.75
2023-02-05T04:31:37.598Z,4.57
2023-02-05T04:34:04.428Z,4.15
2023-02-05T04:36:31.017Z,3.58
2023-02-05T04:39:16.304Z,4.25
2023-02-05T04:44:54.533Z,4.75
2023-02-05T04:47:21.326Z,5.12
2023-02-05T04:49:47.883Z,4.35
2023-02-05T04:52:14.463Z,5.50
2023-02-05T04:54:41.029Z,3.33
2023-02-05T04:57:10.539Z,5.35
2023-02-05T04:59:37.166Z,6.65
2023-02-05T05:02:03.864Z,9.05
2023-02-05T05:04:30.416Z,5.85
2023-02-05T05:06:56.996Z,4.47
2023-02-05T05:09:25.106Z,3.72
2023-02-05T05:11:52.723Z,4.45
2023-02-05T05:14:19.818Z,4.15
2023-02-05T05:16:46.661Z,6.50
2023-02-05T05:19:13.205Z,4.18
2023-02-05T05:21:39.839Z,4.85
2023-02-05T05:24:06.828Z,6.32
2023-02-05T05:26:33.874Z,6.60
2023-02-05T05:29:00.522Z,4.93
2023-02-05T05:31:27.088Z,5.53
2023-02-05T05:33:53.781Z,4.07
2023-02-05T05:36:20.342Z,5.62
2023-02-05T05:38:46.894Z,3.70
2023-02-05T05:41:42.694Z,5.05
2023-02-05T05:44:09.915Z,5.03
2023-02-05T05:46:36.965Z,5.80
2023-02-05T05:49:03.879Z,5.82
2023-02-05T05:51:31.090Z,4.60
2023-02-05T05:53:57.760Z,4.07
2023-02-05T05:56:24.379Z,4.62
2023-02-05T06:01:39.398Z,10.05
2023-02-05T06:04:06.167Z,8.05
2023-02-05T06:06:33.128Z,4.15
2023-02-05T06:08:59.754Z,5.28
2023-02-05T06:11:26.308Z,4.57
2023-02-05T06:14:35.941Z,4.30
2023-02-05T06:17:33.905Z,5.30
2023-02-05T06:20:12.907Z,5.37
2023-02-05T06:22:40.164Z,5.10
2023-02-05T06:25:07.612Z,6.10
2023-02-05T06:27:35.162Z,5.30
2023-02-05T06:30:16.899Z,4.37
2023-02-05T06:32:43.465Z,5.35
2023-02-05T06:35:10.063Z,6.12
2023-02-05T06:37:47.024Z,6.97
2023-02-05T06:40:17.955Z,6.03
2023-02-05T06:42:45.419Z,6.07
2023-02-05T06:45:12.110Z,4.70
2023-02-05T06:47:38.887Z,6.87
2023-02-05T06:50:06.903Z,5.65
2023-02-05T06:52:33.720Z,6.15
2023-02-05T06:55:00.302Z,6.00
2023-02-05T06:57:26.873Z,7.22
2023-02-05T06:59:53.473Z,4.93
2023-02-05T07:02:20.140Z,4.40
2023-02-05T07:04:46.809Z,5.18
2023-02-05T07:07:13.710Z,7.00
2023-02-05T07:09:40.271Z,5.55
2023-02-05T07:12:07.330Z,5.62
2023-02-05T07:14:41.457Z,7.60
2023-02-05T07:17:08.944Z,6.80
2023-02-05T07:19:36.585Z,5.35
2023-02-05T07:22:04.197Z,4.25
2023-02-05T07:24:31.440Z,4.72
2023-02-05T07:26:58.001Z,7.55
2023-02-05T07:29:24.580Z,8.55
2023-02-05T07:31:52.341Z,6.05
2023-02-05T07:34:20.975Z,6.40
2023-02-05T07:36:51.113Z,4.68
2023-02-05T07:39:18.665Z,3.95
2023-02-05T07:41:45.249Z,4.45
2023-02-05T07:44:12.360Z,4.62
2023-02-05T07:46:38.958Z,4.03
2023-02-05T07:49:05.522Z,5.20
2023-02-05T07:51:32.999Z,6.97
2023-02-05T07:54:09.383Z,5.37
2023-02-05T07:56:36.367Z,6.12
2023-02-05T07:59:03.072Z,6.18
2023-02-05T08:01:29.686Z,8.40
2023-02-05T08:03:56.302Z,7.07
2023-02-05T08:06:22.913Z,6.60
2023-02-05T08:08:49.610Z,6.95
2023-02-05T08:11:17.287Z,6.65
2023-02-05T08:13:45.034Z,9.07
2023-02-05T08:16:12.810Z,7.53
2023-02-05T08:18:39.402Z,10.13
2023-02-05T08:21:05.974Z,8.70
2023-02-05T08:23:32.632Z,7.87
2023-02-05T08:26:00.382Z,6.55
2023-02-05T08:28:28.892Z,6.12
2023-02-05T08:30:56.762Z,6.82
2023-02-05T08:33:23.645Z,5.68
2023-02-05T08:35:50.241Z,7.72
2023-02-05T08:38:16.852Z,8.32
2023-02-05T08:40:43.894Z,4.30
2023-02-05T08:43:10.518Z,6.12
2023-02-05T08:45:37.570Z,7.70
2023-02-05T08:48:04.440Z,5.43
2023-02-05T08:50:30.998Z,6.00
2023-02-05T08:52:57.645Z,8.68
2023-02-05T08:55:24.252Z,5.97
2023-02-05T08:57:51.191Z,5.18
2023-02-05T09:00:18.248Z,5.25
2023-02-05T09:02:44.878Z,6.95
2023-02-05T09:05:11.611Z,6.32
2023-02-05T09:07:39.554Z,8.05
2023-02-05T09:10:09.091Z,4.93
2023-02-05T09:12:35.883Z,5.07
2023-02-05T09:15:02.439Z,5.57
2023-02-05T09:17:29.018Z,7.22
2023-02-05T09:19:55.726Z,11.25
2023-02-05T09:22:22.276Z,6.20
2023-02-05T09:24:48.872Z,5.05
2023-02-05T09:27:15.477Z,6.65
2023-02-05T09:29:42.111Z,8.98
2023-02-05T09:32:08.702Z,6.15
2023-02-05T09:34:35.602Z,7.78
2023-02-05T09:37:02.282Z,11.77
2023-02-05T09:40:17.309Z,6.03
2023-02-05T09:42:45.326Z,4.80
2023-02-05T09:45:37.318Z,4.75
2023-02-05T09:48:29.361Z,4.10
2023-02-05T09:50:58.121Z,4.95
2023-02-05T09:53:33.165Z,4.32
2023-02-05T09:56:02.194Z,4.78
2023-02-05T09:58:33.119Z,4.00
2023-02-05T10:01:03.870Z,4.47
2023-02-05T10:03:50.164Z,4.45
2023-02-05T10:06:16.659Z,11.57
2023-02-05T10:09:02.396Z,4.37
2023-02-05T10:11:45.229Z,5.55
2023-02-05T10:14:22.540Z,6.28
2023-02-05T10:17:29.340Z,8.82
2023-02-05T10:20:17.527Z,8.18
2023-02-05T10:22:53.813Z,3.80
2023-02-05T10:25:36.255Z,6.78
2023-02-05T10:31:37.185Z,22.25
2023-02-05T10:34:32.075Z,8.20
2023-02-05T10:37:02.805Z,14.13
2023-02-05T10:39:30.413Z,6.20
2023-02-05T10:42:03.071Z,11.30
2023-02-05T10:44:58.741Z,7.10
2023-02-05T10:48:26.375Z,7.47
2023-02-05T10:50:56.169Z,5.37
2023-02-05T10:53:24.804Z,6.03
2023-02-05T10:55:58.511Z,8.25
2023-02-05T10:59:02.355Z,6.37
2023-02-05T11:01:38.143Z,5.95
2023-02-05T11:04:14.150Z,4.37
2023-02-05T11:06:48.549Z,4.78
2023-02-05T11:09:24.297Z,3.92
2023-02-05T11:11:59.708Z,5.57
2023-02-05T11:14:37.702Z,5.20
2023-02-05T11:17:15.009Z,6.20
2023-02-05T11:19:41.643Z,6.53
2023-02-05T11:22:33.068Z,4.97
2023-02-05T11:25:31.577Z,5.05
2023-02-05T11:28:42.512Z,7.85
2023-02-05T11:31:47.872Z,5.97
2023-02-05T11:34:19.939Z,4.45
2023-02-05T11:36:55.165Z,5.63
2023-02-05T11:39:37.778Z,4.87
2023-02-05T11:42:25.937Z,3.97
2023-02-05T11:44:58.639Z,6.53
2023-02-05T11:47:40.377Z,4.22
2023-02-05T11:50:22.536Z,4.03
2023-02-05T11:52:50.256Z,5.53
2023-02-05T11:55:44.498Z,6.68
2023-02-05T11:58:42.651Z,6.07
2023-02-05T12:01:31.216Z,4.00
2023-02-05T12:04:06.756Z,4.03
2023-02-05T12:06:39.962Z,5.55
2023-02-05T12:09:06.695Z,5.80
2023-02-05T12:12:16.853Z,5.20
2023-02-05T12:14:50.376Z,6.15
2023-02-05T12:17:22.257Z,5.05
2023-02-05T12:19:55.307Z,3.62
2023-02-05T12:25:09.401Z,3.37
2023-02-05T12:28:16.031Z,3.90
2023-02-05T12:31:01.583Z,4.97
2023-02-05T12:33:50.066Z,5.03
2023-02-05T12:36:29.762Z,3.58
2023-02-05T12:39:14.273Z,5.10
2023-02-05T12:41:56.939Z,6.47
2023-02-05T12:44:42.765Z,7.53
2023-02-05T12:47:34.882Z,3.78
2023-02-05T12:50:22.850Z,6.15
2023-02-05T12:53:17.007Z,3.87
2023-02-05T12:56:22.546Z,6.35
2023-02-05T12:59:12.677Z,5.60
2023-02-05T13:01:49.025Z,4.00
2023-02-05T13:04:22.138Z,4.97
2023-02-05T13:06:57.820Z,5.05
2023-02-05T13:09:45.476Z,5.40
2023-02-05T13:12:16.483Z,5.35
2023-02-05T13:14:56.523Z,3.85
2023-02-05T13:17:29.216Z,4.57
2023-02-05T13:20:04.415Z,2.60
2023-02-05T13:22:57.583Z,3.15
2023-02-05T13:26:00.266Z,4.32
2023-02-05T13:28:40.215Z,5.03
2023-02-05T13:31:24.290Z,4.50
2023-02-05T13:33:53.376Z,4.30
2023-02-05T13:36:28.920Z,2.70
2023-02-05T13:39:34.446Z,4.45
2023-02-05T13:42:31.579Z,4.45
2023-02-05T13:45:36.147Z,4.43
2023-02-05T13:48:21.655Z,3.28
2023-02-05T13:50:54.205Z,4.90
2023-02-05T13:53:32.482Z,7.00
2023-02-05T13:55:58.969Z,6.47
2023-02-05T13:58:47.945Z,5.07
2023-02-05T14:01:31.920Z,3.75
2023-02-05T14:04:08.425Z,3.60
2023-02-05T14:06:40.554Z,4.78
2023-02-05T14:09:20.946Z,4.53
2023-02-05T14:11:55.964Z,5.82
2023-02-05T14:14:22.466Z,4.82
2023-02-05T14:16:51.010Z,5.45
2023-02-05T14:19:22.110Z,5.60
2023-02-05T14:21:56.884Z,4.03
2023-02-05T14:24:39.077Z,5.10
2023-02-05T14:27:20.669Z,8.88
2023-02-05T14:30:38.232Z,6.03
2023-02-05T14:33:26.702Z,7.00
2023-02-05T14:36:22.925Z,5.30
2023-02-05T14:39:27.453Z,9.05
2023-02-05T14:41:59.039Z,3.62
2023-02-05T14:44:42.463Z,4.90
2023-02-05T14:47:28.576Z,5.53
2023-02-05T14:50:11.245Z,4.50
2023-02-05T14:52:46.295Z,6.37
2023-02-05T14:55:12.786Z,5.20
2023-02-05T15:03:39.954Z,6.50
2023-02-05T15:06:15.516Z,7.05
2023-02-05T15:16:27.875Z,5.93
2023-02-05T15:18:59.125Z,6.07
2023-02-05T15:21:33.519Z,9.48
2023-02-05T15:24:13.904Z,6.07
2023-02-05T15:27:02.771Z,6.40
2023-02-05T15:29:46.120Z,5.90
2023-02-05T15:34:48.173Z,5.90
2023-02-05T15:37:29.857Z,5.72
2023-02-05T15:39:59.529Z,10.52
2023-02-05T15:42:39.833Z,6.90
2023-02-05T15:45:18.765Z,9.18
2023-02-05T15:47:45.562Z,8.40
2023-02-05T15:50:15.564Z,7.32
2023-02-05T15:52:42.376Z,11.27
2023-02-05T15:55:13.358Z,12.90
2023-02-05T15:57:40.094Z,7.90
2023-02-05T16:00:09.994Z,8.90
2023-02-05T16:02:36.877Z,10.65
2023-02-05T16:05:17.941Z,9.30
2023-02-05T16:07:47.541Z,8.05
2023-02-05T16:10:23.774Z,8.02
2023-02-05T16:13:07.049Z,7.53
2023-02-05T16:15:40.559Z,9.05
2023-02-05T16:18:15.836Z,8.50
2023-02-05T16:20:49.853Z,9.10
2023-02-05T16:23:45.647Z,12.55
2023-02-05T16:26:26.479Z,20.60
2023-02-05T16:29:02.369Z,17.45
2023-02-05T16:31:30.824Z,10.68
2023-02-05T16:34:04.805Z,9.63
2023-02-05T16:36:43.591Z,10.00
2023-02-05T16:39:27.488Z,10.35
2023-02-05T16:42:06.545Z,11.18
2023-02-05T16:44:37.272Z,14.07
2023-02-05T16:47:16.417Z,12.10
2023-02-05T16:49:45.256Z,12.88
2023-02-05T16:52:33.330Z,12.07
2023-02-05T16:55:25.610Z,10.82
2023-02-05T16:57:53.208Z,12.75
2023-02-05T17:00:23.594Z,12.30
2023-02-05T17:02:55.459Z,14.00
2023-02-05T17:05:28.233Z,13.05
2023-02-05T17:07:57.242Z,12.63
2023-02-05T17:10:24.858Z,15.70
2023-02-05T17:13:01.678Z,13.25
2023-02-05T17:15:36.717Z,14.75
2023-02-05T17:18:28.908Z,19.02
2023-02-05T17:21:31.124Z,13.77
2023-02-05T17:23:59.716Z,12.35
2023-02-05T17:26:37.652Z,120.95
2023-02-05T17:29:07.270Z,57.33
2023-02-05T17:31:38.589Z,49.47
2023-02-05T17:34:05.633Z,30.25
2023-02-05T17:36:32.859Z,17.37
2023-02-05T17:38:59.439Z,12.23
2023-02-05T17:41:48.516Z,25.40
2023-02-05T17:44:16.687Z,26.23
2023-02-05T17:46:44.566Z,23.08
2023-02-05T17:49:11.241Z,15.50
2023-02-05T17:51:42.533Z,15.00
2023-02-05T17:54:15.393Z,26.87
2023-02-05T17:56:44.454Z,25.83
2023-02-05T17:59:17.090Z,26.50
2023-02-05T18:01:44.056Z,22.77
2023-02-05T18:04:11.907Z,27.90
2023-02-05T18:06:39.530Z,20.85
2023-02-05T18:09:06.609Z,15.45
2023-02-05T18:11:33.676Z,13.60
2023-02-05T18:14:00.470Z,17.70
2023-02-05T18:16:27.513Z,13.65
2023-02-05T18:18:54.187Z,14.55
2023-02-05T18:21:21.747Z,14.95
2023-02-05T18:23:52.824Z,13.60
2023-02-05T18:26:20.014Z,15.70
2023-02-05T18:28:46.862Z,14.80
2023-02-05T18:31:14.878Z,15.60
2023-02-05T18:33:42.312Z,15.75
2023-02-05T18:36:12.344Z,15.60
2023-02-05T18:38:40.185Z,14.60
2023-02-05T18:41:12.560Z,13.62
2023-02-05T18:43:39.527Z,12.00
2023-02-05T18:46:08.241Z,13.18
2023-02-05T18:48:35.000Z,14.30
2023-02-05T18:51:09.929Z,12.13
2023-02-05T18:53:38.984Z,12.55
2023-02-05T18:56:09.801Z,15.30
2023-02-05T18:58:36.712Z,13.45
2023-02-05T19:01:15.193Z,11.60
2023-02-05T19:03:42.819Z,12.43
2023-02-05T19:06:12.613Z,14.02
2023-02-05T19:08:39.761Z,12.45
2023-02-05T19:11:25.756Z,13.98
2023-02-05T19:25:37.614Z,13.62
2023-02-05T19:32:41.638Z,14.15
2023-02-05T19:51:49.910Z,15.20
2023-02-05T19:54:18.941Z,16.05
2023-02-05T19:56:47.003Z,16.12
2023-02-05T20:00:00.109Z,14.68
2023-02-05T20:03:12.319Z,16.80
2023-02-05T20:05:39.138Z,15.07
2023-02-05T20:08:09.632Z,14.05
2023-02-05T20:10:36.432Z,13.13
2023-02-05T20:13:03.368Z,16.83
2023-02-05T20:15:32.127Z,15.95
2023-02-05T20:17:58.723Z,14.50
2023-02-05T20:20:33.534Z,15.38
2023-02-05T20:23:00.610Z,15.65
2023-02-05T20:25:27.161Z,13.43
2023-02-05T20:27:53.786Z,14.02
2023-02-05T20:30:39.134Z,15.95
2023-02-05T20:33:05.716Z,14.02
2023-02-05T20:35:35.440Z,16.67
2023-02-05T20:38:02.000Z,14.18
2023-02-05T20:40:28.615Z,21.12
2023-02-05T20:42:55.222Z,18.23
2023-02-05T20:45:21.799Z,15.77
2023-02-05T20:47:48.355Z,19.33
2023-02-05T20:50:15.149Z,20.27
2023-02-05T20:52:41.739Z,17.08
2023-02-05T20:55:08.541Z,19.08
2023-02-05T20:57:35.340Z,18.80
2023-02-05T21:00:02.036Z,19.95
2023-02-05T21:02:28.651Z,18.12
2023-02-05T21:04:55.211Z,17.83
2023-02-05T21:07:27.023Z,16.08
2023-02-05T21:09:54.764Z,14.23
2023-02-05T21:12:21.465Z,15.18
2023-02-05T21:14:48.072Z,15.93
2023-02-05T21:55:08.800Z,25.08
2023-02-05T21:57:37.829Z,26.42
2023-02-05T22:00:04.779Z,31.70
2023-02-05T22:02:31.373Z,31.55
2023-02-05T22:04:57.941Z,38.70
2023-02-05T22:08:03.363Z,27.17
2023-02-05T22:11:19.860Z,32.22
2023-02-05T22:14:05.605Z,28.58
2023-02-05T22:16:33.619Z,29.10
2023-02-05T22:19:01.407Z,24.48
2023-02-05T22:21:34.788Z,22.40
2023-02-05T22:24:02.826Z,18.60
2023-02-05T22:29:25.083Z,20.25
2023-02-05T22:31:54.136Z,15.05
2023-02-05T22:39:31.574Z,13.77
2023-02-05T22:42:22.312Z,13.48
2023-02-05T22:45:16.999Z,12.07
2023-02-05T22:48:08.639Z,12.50
2023-02-05T22:50:41.604Z,15.60
2023-02-05T22:55:36.827Z,13.75
2023-02-05T22:58:04.494Z,16.42
2023-02-05T23:00:32.332Z,13.70
2023-02-05T23:03:23.301Z,16.75
2023-02-05T23:05:50.777Z,15.05
2023-02-05T23:08:17.386Z,16.85
2023-02-05T23:10:43.946Z,13.62
2023-02-05T23:14:00.327Z,16.67
2023-02-05T23:16:49.093Z,17.73
2023-02-05T23:19:22.259Z,17.10
2023-02-05T23:21:49.450Z,18.87
2023-02-05T23:24:17.284Z,14.85
2023-02-05T23:26:46.676Z,16.92
2023-02-05T23:29:15.103Z,15.18
